sensor_id;sensor_type;location;lat;lon;timestamp;temperature;humidity
7196;DHT22;3639;51.308;5.624;2022-07-25T00:00:07;22.30;99.90
7196;DHT22;3639;51.308;5.624;2022-07-25T00:02:34;22.20;99.90
7196;DHT22;3639;51.308;5.624;2022-07-25T00:05:00;22.20;99.90
7196;DHT22;3639;51.308;5.624;2022-07-25T00:07:27;22.10;99.90
7196;DHT22;3639;51.308;5.624;2022-07-25T00:09:53;22.10;99.90
7196;DHT22;3639;51.308;5.624;2022-07-25T00:12:19;21.90;99.90
7196;DHT22;3639;51.308;5.624;2022-07-25T00:14:45;21.80;99.90
7196;DHT22;3639;51.308;5.624;2022-07-25T00:17:11;21.80;99.90
7196;DHT22;3639;51.308;5.624;2022-07-25T00:19:37;21.80;99.90
7196;DHT22;3639;51.308;5.624;2022-07-25T00:22:03;21.80;99.90
7196;DHT22;3639;51.308;5.624;2022-07-25T00:24:28;21.80;99.90
7196;DHT22;3639;51.308;5.624;2022-07-25T00:26:54;21.80;99.90
7196;DHT22;3639;51.308;5.624;2022-07-25T00:29:20;21.80;99.90
7196;DHT22;3639;51.308;5.624;2022-07-25T00:31:45;21.80;99.90
7196;DHT22;3639;51.308;5.624;2022-07-25T00:34:11;21.70;99.90
7196;DHT22;3639;51.308;5.624;2022-07-25T00:36:37;21.70;99.90
7196;DHT22;3639;51.308;5.624;2022-07-25T00:39:03;21.60;99.90
7196;DHT22;3639;51.308;5.624;2022-07-25T00:41:29;21.60;99.90
7196;DHT22;3639;51.308;5.624;2022-07-25T00:43:55;21.60;99.90
7196;DHT22;3639;51.308;5.624;2022-07-25T00:46:21;21.60;99.90
7196;DHT22;3639;51.308;5.624;2022-07-25T00:48:47;21.50;99.90
7196;DHT22;3639;51.308;5.624;2022-07-25T00:51:13;21.50;99.90
7196;DHT22;3639;51.308;5.624;2022-07-25T00:53:40;21.50;99.90
7196;DHT22;3639;51.308;5.624;2022-07-25T00:56:05;21.50;99.90
7196;DHT22;3639;51.308;5.624;2022-07-25T00:58:32;21.40;99.90
7196;DHT22;3639;51.308;5.624;2022-07-25T01:00:58;21.40;99.90
7196;DHT22;3639;51.308;5.624;2022-07-25T01:03:24;21.40;99.90
7196;DHT22;3639;51.308;5.624;2022-07-25T01:05:50;21.50;99.90
7196;DHT22;3639;51.308;5.624;2022-07-25T01:08:17;21.50;99.90
7196;DHT22;3639;51.308;5.624;2022-07-25T01:10:44;21.40;99.90
7196;DHT22;3639;51.308;5.624;2022-07-25T01:13:11;21.40;99.90
7196;DHT22;3639;51.308;5.624;2022-07-25T01:15:36;21.50;99.90
7196;DHT22;3639;51.308;5.624;2022-07-25T01:18:02;21.50;99.90
7196;DHT22;3639;51.308;5.624;2022-07-25T01:20:30;21.50;99.90
7196;DHT22;3639;51.308;5.624;2022-07-25T01:22:56;21.50;99.90
7196;DHT22;3639;51.308;5.624;2022-07-25T01:25:22;21.50;99.90
7196;DHT22;3639;51.308;5.624;2022-07-25T01:27:49;21.40;99.90
7196;DHT22;3639;51.308;5.624;2022-07-25T01:30:16;21.40;99.90
7196;DHT22;3639;51.308;5.624;2022-07-25T01:32:42;21.40;99.90
7196;DHT22;3639;51.308;5.624;2022-07-25T01:35:09;21.30;99.90
7196;DHT22;3639;51.308;5.624;2022-07-25T01:37:36;21.30;99.90
7196;DHT22;3639;51.308;5.624;2022-07-25T01:40:02;21.20;99.90
7196;DHT22;3639;51.308;5.624;2022-07-25T01:42:28;21.20;99.90
7196;DHT22;3639;51.308;5.624;2022-07-25T01:44:54;21.10;99.90
7196;DHT22;3639;51.308;5.624;2022-07-25T01:47:19;21.10;99.90
7196;DHT22;3639;51.308;5.624;2022-07-25T01:49:45;21.10;99.90
7196;DHT22;3639;51.308;5.624;2022-07-25T01:52:12;21.10;99.90
7196;DHT22;3639;51.308;5.624;2022-07-25T01:54:38;21.10;99.90
7196;DHT22;3639;51.308;5.624;2022-07-25T01:57:04;21.00;99.90
7196;DHT22;3639;51.308;5.624;2022-07-25T01:59:30;21.00;99.90
7196;DHT22;3639;51.308;5.624;2022-07-25T02:01:55;21.00;99.90
7196;DHT22;3639;51.308;5.624;2022-07-25T02:04:21;21.00;99.90
7196;DHT22;3639;51.308;5.624;2022-07-25T02:06:48;21.00;99.90
7196;DHT22;3639;51.308;5.624;2022-07-25T02:09:14;20.90;99.90
7196;DHT22;3639;51.308;5.624;2022-07-25T02:11:39;20.90;99.90
7196;DHT22;3639;51.308;5.624;2022-07-25T02:14:05;21.00;99.90
7196;DHT22;3639;51.308;5.624;2022-07-25T02:16:31;20.90;99.90
7196;DHT22;3639;51.308;5.624;2022-07-25T02:18:57;20.90;99.90
7196;DHT22;3639;51.308;5.624;2022-07-25T02:21:23;20.90;99.90
7196;DHT22;3639;51.308;5.624;2022-07-25T02:23:48;20.80;99.90
7196;DHT22;3639;51.308;5.624;2022-07-25T02:26:14;20.80;99.90
7196;DHT22;3639;51.308;5.624;2022-07-25T02:28:40;20.80;99.90
7196;DHT22;3639;51.308;5.624;2022-07-25T02:31:06;20.80;99.90
7196;DHT22;3639;51.308;5.624;2022-07-25T02:33:31;20.80;99.90
7196;DHT22;3639;51.308;5.624;2022-07-25T02:35:57;20.80;99.90
7196;DHT22;3639;51.308;5.624;2022-07-25T02:38:23;20.70;99.90
7196;DHT22;3639;51.308;5.624;2022-07-25T02:40:51;20.70;99.90
7196;DHT22;3639;51.308;5.624;2022-07-25T02:43:17;20.70;99.90
7196;DHT22;3639;51.308;5.624;2022-07-25T02:45:43;20.60;99.90
7196;DHT22;3639;51.308;5.624;2022-07-25T02:48:09;20.60;99.90
7196;DHT22;3639;51.308;5.624;2022-07-25T02:50:35;20.60;99.90
7196;DHT22;3639;51.308;5.624;2022-07-25T02:53:01;20.50;99.90
7196;DHT22;3639;51.308;5.624;2022-07-25T02:55:26;20.50;99.90
7196;DHT22;3639;51.308;5.624;2022-07-25T02:57:52;20.50;99.90
7196;DHT22;3639;51.308;5.624;2022-07-25T03:00:18;20.50;99.90
7196;DHT22;3639;51.308;5.624;2022-07-25T03:02:44;20.40;99.90
7196;DHT22;3639;51.308;5.624;2022-07-25T03:05:12;20.40;99.90
7196;DHT22;3639;51.308;5.624;2022-07-25T03:07:38;20.40;99.90
7196;DHT22;3639;51.308;5.624;2022-07-25T03:10:05;20.40;99.90
7196;DHT22;3639;51.308;5.624;2022-07-25T03:12:31;20.40;99.90
7196;DHT22;3639;51.308;5.624;2022-07-25T03:14:58;20.40;99.90
7196;DHT22;3639;51.308;5.624;2022-07-25T03:17:24;20.40;99.90
7196;DHT22;3639;51.308;5.624;2022-07-25T03:19:50;20.40;99.90
7196;DHT22;3639;51.308;5.624;2022-07-25T03:22:16;20.40;99.90
7196;DHT22;3639;51.308;5.624;2022-07-25T03:24:42;20.30;99.90
7196;DHT22;3639;51.308;5.624;2022-07-25T03:27:08;20.30;99.90
7196;DHT22;3639;51.308;5.624;2022-07-25T03:29:34;20.20;99.90
7196;DHT22;3639;51.308;5.624;2022-07-25T03:32:00;20.20;99.90
7196;DHT22;3639;51.308;5.624;2022-07-25T03:34:25;20.20;99.90
7196;DHT22;3639;51.308;5.624;2022-07-25T03:36:51;20.20;99.90
7196;DHT22;3639;51.308;5.624;2022-07-25T03:39:17;20.20;99.90
7196;DHT22;3639;51.308;5.624;2022-07-25T03:41:43;20.20;99.90
7196;DHT22;3639;51.308;5.624;2022-07-25T03:44:09;20.20;99.90
7196;DHT22;3639;51.308;5.624;2022-07-25T03:46:35;20.20;99.90
7196;DHT22;3639;51.308;5.624;2022-07-25T03:49:01;20.20;99.90
7196;DHT22;3639;51.308;5.624;2022-07-25T03:51:27;20.20;99.90
7196;DHT22;3639;51.308;5.624;2022-07-25T03:53:52;20.20;99.90
7196;DHT22;3639;51.308;5.624;2022-07-25T03:56:28;20.20;99.90
7196;DHT22;3639;51.308;5.624;2022-07-25T03:58:54;20.20;99.90
7196;DHT22;3639;51.308;5.624;2022-07-25T04:01:20;20.20;99.90
7196;DHT22;3639;51.308;5.624;2022-07-25T04:03:46;20.20;99.90
7196;DHT22;3639;51.308;5.624;2022-07-25T04:06:11;20.30;99.90
7196;DHT22;3639;51.308;5.624;2022-07-25T04:08:37;20.30;99.90
7196;DHT22;3639;51.308;5.624;2022-07-25T04:11:03;20.40;99.90
7196;DHT22;3639;51.308;5.624;2022-07-25T04:13:29;20.40;99.90
7196;DHT22;3639;51.308;5.624;2022-07-25T04:15:55;20.40;99.90
7196;DHT22;3639;51.308;5.624;2022-07-25T04:18:21;20.40;99.90
7196;DHT22;3639;51.308;5.624;2022-07-25T04:20:46;20.40;99.90
7196;DHT22;3639;51.308;5.624;2022-07-25T04:23:12;20.50;99.90
7196;DHT22;3639;51.308;5.624;2022-07-25T04:25:38;20.60;99.90
7196;DHT22;3639;51.308;5.624;2022-07-25T04:28:05;20.60;99.90
7196;DHT22;3639;51.308;5.624;2022-07-25T04:30:31;20.70;99.90
7196;DHT22;3639;51.308;5.624;2022-07-25T04:32:57;20.70;99.90
7196;DHT22;3639;51.308;5.624;2022-07-25T04:35:22;20.70;99.90
7196;DHT22;3639;51.308;5.624;2022-07-25T04:37:48;20.80;99.90
7196;DHT22;3639;51.308;5.624;2022-07-25T04:40:14;20.80;99.90
7196;DHT22;3639;51.308;5.624;2022-07-25T04:42:39;20.80;99.90
7196;DHT22;3639;51.308;5.624;2022-07-25T04:45:05;20.90;99.90
7196;DHT22;3639;51.308;5.624;2022-07-25T04:47:31;20.90;99.90
7196;DHT22;3639;51.308;5.624;2022-07-25T04:49:56;20.90;99.90
7196;DHT22;3639;51.308;5.624;2022-07-25T04:52:22;21.00;99.90
7196;DHT22;3639;51.308;5.624;2022-07-25T04:54:48;21.10;99.90
7196;DHT22;3639;51.308;5.624;2022-07-25T04:57:14;21.10;99.90
7196;DHT22;3639;51.308;5.624;2022-07-25T04:59:39;21.20;99.90
7196;DHT22;3639;51.308;5.624;2022-07-25T05:02:08;21.40;99.90
7196;DHT22;3639;51.308;5.624;2022-07-25T05:04:34;21.50;99.90
7196;DHT22;3639;51.308;5.624;2022-07-25T05:07:00;21.60;99.90
7196;DHT22;3639;51.308;5.624;2022-07-25T05:09:25;21.70;99.90
7196;DHT22;3639;51.308;5.624;2022-07-25T05:11:52;21.80;99.90
7196;DHT22;3639;51.308;5.624;2022-07-25T05:14:18;22.00;99.90
7196;DHT22;3639;51.308;5.624;2022-07-25T05:16:44;22.00;99.90
7196;DHT22;3639;51.308;5.624;2022-07-25T05:19:09;22.00;99.90
7196;DHT22;3639;51.308;5.624;2022-07-25T05:21:35;22.10;99.90
7196;DHT22;3639;51.308;5.624;2022-07-25T05:24:03;22.20;99.90
7196;DHT22;3639;51.308;5.624;2022-07-25T05:26:29;22.20;99.90
7196;DHT22;3639;51.308;5.624;2022-07-25T05:28:54;22.20;99.90
7196;DHT22;3639;51.308;5.624;2022-07-25T05:31:20;22.10;99.90
7196;DHT22;3639;51.308;5.624;2022-07-25T05:33:46;22.10;99.90
7196;DHT22;3639;51.308;5.624;2022-07-25T05:36:12;22.10;99.90
7196;DHT22;3639;51.308;5.624;2022-07-25T05:42:00;22.20;99.90
7196;DHT22;3639;51.308;5.624;2022-07-25T05:44:26;22.20;99.90
7196;DHT22;3639;51.308;5.624;2022-07-25T05:46:53;22.30;99.90
7196;DHT22;3639;51.308;5.624;2022-07-25T05:49:19;22.60;99.90
7196;DHT22;3639;51.308;5.624;2022-07-25T05:51:45;22.70;99.90
7196;DHT22;3639;51.308;5.624;2022-07-25T05:54:10;22.70;99.90
7196;DHT22;3639;51.308;5.624;2022-07-25T05:56:36;22.90;99.90
7196;DHT22;3639;51.308;5.624;2022-07-25T05:59:02;22.90;99.90
7196;DHT22;3639;51.308;5.624;2022-07-25T06:01:28;23.00;99.90
7196;DHT22;3639;51.308;5.624;2022-07-25T06:03:53;23.10;99.90
7196;DHT22;3639;51.308;5.624;2022-07-25T06:06:19;23.20;99.90
7196;DHT22;3639;51.308;5.624;2022-07-25T06:08:48;23.40;99.90
7196;DHT22;3639;51.308;5.624;2022-07-25T06:11:13;23.50;99.90
7196;DHT22;3639;51.308;5.624;2022-07-25T06:13:40;23.50;99.90
7196;DHT22;3639;51.308;5.624;2022-07-25T06:16:06;23.50;99.90
7196;DHT22;3639;51.308;5.624;2022-07-25T06:18:33;23.50;99.90
7196;DHT22;3639;51.308;5.624;2022-07-25T06:20:58;23.40;99.90
7196;DHT22;3639;51.308;5.624;2022-07-25T06:23:24;23.40;99.90
7196;DHT22;3639;51.308;5.624;2022-07-25T06:25:50;23.40;99.90
7196;DHT22;3639;51.308;5.624;2022-07-25T06:28:15;23.40;99.90
7196;DHT22;3639;51.308;5.624;2022-07-25T06:30:42;23.40;99.90
7196;DHT22;3639;51.308;5.624;2022-07-25T06:33:09;23.50;99.90
7196;DHT22;3639;51.308;5.624;2022-07-25T06:35:35;23.50;99.90
7196;DHT22;3639;51.308;5.624;2022-07-25T06:38:01;23.50;99.90
7196;DHT22;3639;51.308;5.624;2022-07-25T06:40:26;23.50;99.90
7196;DHT22;3639;51.308;5.624;2022-07-25T06:42:52;23.50;99.90
7196;DHT22;3639;51.308;5.624;2022-07-25T06:45:18;23.50;99.90
7196;DHT22;3639;51.308;5.624;2022-07-25T06:47:47;23.50;99.90
7196;DHT22;3639;51.308;5.624;2022-07-25T06:50:15;23.60;99.90
7196;DHT22;3639;51.308;5.624;2022-07-25T06:52:43;23.70;99.90
7196;DHT22;3639;51.308;5.624;2022-07-25T06:55:10;23.70;99.90
7196;DHT22;3639;51.308;5.624;2022-07-25T06:57:36;23.70;99.90
7196;DHT22;3639;51.308;5.624;2022-07-25T07:00:05;23.80;99.90
7196;DHT22;3639;51.308;5.624;2022-07-25T07:02:34;23.80;99.90
7196;DHT22;3639;51.308;5.624;2022-07-25T07:05:00;23.80;99.90
7196;DHT22;3639;51.308;5.624;2022-07-25T07:07:26;23.80;99.90
7196;DHT22;3639;51.308;5.624;2022-07-25T07:09:52;23.80;99.90
7196;DHT22;3639;51.308;5.624;2022-07-25T07:12:17;23.80;99.90
7196;DHT22;3639;51.308;5.624;2022-07-25T07:14:43;23.80;99.90
7196;DHT22;3639;51.308;5.624;2022-07-25T07:17:09;23.80;99.90
7196;DHT22;3639;51.308;5.624;2022-07-25T07:19:36;23.70;99.90
7196;DHT22;3639;51.308;5.624;2022-07-25T07:22:08;23.70;99.90
7196;DHT22;3639;51.308;5.624;2022-07-25T07:24:33;23.70;99.90
7196;DHT22;3639;51.308;5.624;2022-07-25T07:26:59;23.80;99.90
7196;DHT22;3639;51.308;5.624;2022-07-25T07:29:24;23.80;99.90
7196;DHT22;3639;51.308;5.624;2022-07-25T07:31:50;23.90;99.90
7196;DHT22;3639;51.308;5.624;2022-07-25T07:34:16;24.00;99.90
7196;DHT22;3639;51.308;5.624;2022-07-25T07:36:42;24.20;99.90
7196;DHT22;3639;51.308;5.624;2022-07-25T07:39:07;24.20;99.90
7196;DHT22;3639;51.308;5.624;2022-07-25T07:41:33;24.30;99.90
7196;DHT22;3639;51.308;5.624;2022-07-25T07:43:59;24.20;99.90
7196;DHT22;3639;51.308;5.624;2022-07-25T07:46:24;24.10;99.90
7196;DHT22;3639;51.308;5.624;2022-07-25T07:48:50;24.10;99.90
7196;DHT22;3639;51.308;5.624;2022-07-25T07:51:15;24.10;99.90
7196;DHT22;3639;51.308;5.624;2022-07-25T07:53:41;24.00;99.90
7196;DHT22;3639;51.308;5.624;2022-07-25T07:56:25;24.00;99.90
7196;DHT22;3639;51.308;5.624;2022-07-25T07:58:51;24.00;99.90
7196;DHT22;3639;51.308;5.624;2022-07-25T08:01:20;24.20;99.90
7196;DHT22;3639;51.308;5.624;2022-07-25T08:03:45;24.50;99.90
7196;DHT22;3639;51.308;5.624;2022-07-25T08:06:11;24.70;99.90
7196;DHT22;3639;51.308;5.624;2022-07-25T08:08:37;24.90;99.90
7196;DHT22;3639;51.308;5.624;2022-07-25T08:11:03;25.00;99.90
7196;DHT22;3639;51.308;5.624;2022-07-25T08:13:30;25.00;99.90
7196;DHT22;3639;51.308;5.624;2022-07-25T08:16:00;25.20;99.90
7196;DHT22;3639;51.308;5.624;2022-07-25T08:18:27;25.60;99.90
7196;DHT22;3639;51.308;5.624;2022-07-25T08:21:00;25.80;99.90
7196;DHT22;3639;51.308;5.624;2022-07-25T08:23:27;26.00;99.90
7196;DHT22;3639;51.308;5.624;2022-07-25T08:25:53;26.10;99.90
7196;DHT22;3639;51.308;5.624;2022-07-25T08:28:19;26.10;99.80
7196;DHT22;3639;51.308;5.624;2022-07-25T08:30:45;26.30;99.80
7196;DHT22;3639;51.308;5.624;2022-07-25T08:33:12;26.30;99.70
7196;DHT22;3639;51.308;5.624;2022-07-25T08:35:45;26.20;99.90
7196;DHT22;3639;51.308;5.624;2022-07-25T08:38:11;26.20;99.70
7196;DHT22;3639;51.308;5.624;2022-07-25T08:40:39;26.20;99.70
7196;DHT22;3639;51.308;5.624;2022-07-25T08:43:04;26.20;99.90
7196;DHT22;3639;51.308;5.624;2022-07-25T08:45:32;26.20;99.90
7196;DHT22;3639;51.308;5.624;2022-07-25T08:47:58;26.10;99.90
7196;DHT22;3639;51.308;5.624;2022-07-25T08:50:26;25.90;99.90
7196;DHT22;3639;51.308;5.624;2022-07-25T08:52:52;25.90;99.90
7196;DHT22;3639;51.308;5.624;2022-07-25T08:55:21;25.80;99.90
7196;DHT22;3639;51.308;5.624;2022-07-25T08:57:48;25.80;99.90
7196;DHT22;3639;51.308;5.624;2022-07-25T09:00:17;25.90;99.90
7196;DHT22;3639;51.308;5.624;2022-07-25T09:02:56;26.10;99.90
7196;DHT22;3639;51.308;5.624;2022-07-25T09:05:22;26.30;99.90
7196;DHT22;3639;51.308;5.624;2022-07-25T09:07:49;26.40;99.80
7196;DHT22;3639;51.308;5.624;2022-07-25T09:10:19;26.60;99.90
7196;DHT22;3639;51.308;5.624;2022-07-25T09:13:03;26.60;99.90
7196;DHT22;3639;51.308;5.624;2022-07-25T09:15:31;26.70;99.90
7196;DHT22;3639;51.308;5.624;2022-07-25T09:18:08;26.70;99.90
7196;DHT22;3639;51.308;5.624;2022-07-25T09:20:44;26.70;99.90
7196;DHT22;3639;51.308;5.624;2022-07-25T09:23:12;26.80;99.90
7196;DHT22;3639;51.308;5.624;2022-07-25T09:25:39;26.80;99.90
7196;DHT22;3639;51.308;5.624;2022-07-25T09:28:12;26.90;99.90
7196;DHT22;3639;51.308;5.624;2022-07-25T09:30:39;27.00;99.90
7196;DHT22;3639;51.308;5.624;2022-07-25T09:33:08;27.10;99.50
7196;DHT22;3639;51.308;5.624;2022-07-25T09:35:34;27.10;99.90
7196;DHT22;3639;51.308;5.624;2022-07-25T09:38:08;27.30;99.90
7196;DHT22;3639;51.308;5.624;2022-07-25T09:40:34;27.60;99.60
7196;DHT22;3639;51.308;5.624;2022-07-25T09:42:59;27.70;99.50
7196;DHT22;3639;51.308;5.624;2022-07-25T09:45:25;27.80;99.20
7196;DHT22;3639;51.308;5.624;2022-07-25T09:47:53;27.80;98.40
7196;DHT22;3639;51.308;5.624;2022-07-25T09:50:20;27.80;98.50
7196;DHT22;3639;51.308;5.624;2022-07-25T09:52:46;27.90;98.50
7196;DHT22;3639;51.308;5.624;2022-07-25T09:55:12;28.00;98.60
7196;DHT22;3639;51.308;5.624;2022-07-25T09:57:40;28.00;98.60
7196;DHT22;3639;51.308;5.624;2022-07-25T10:00:07;28.00;98.20
7196;DHT22;3639;51.308;5.624;2022-07-25T10:05:33;28.10;98.20
7196;DHT22;3639;51.308;5.624;2022-07-25T10:08:05;28.00;98.10
7196;DHT22;3639;51.308;5.624;2022-07-25T10:10:36;28.10;97.60
7196;DHT22;3639;51.308;5.624;2022-07-25T10:13:13;28.20;97.20
7196;DHT22;3639;51.308;5.624;2022-07-25T10:18:15;28.40;96.70
7196;DHT22;3639;51.308;5.624;2022-07-25T10:20:42;28.10;97.20
7196;DHT22;3639;51.308;5.624;2022-07-25T10:23:25;27.90;97.90
7196;DHT22;3639;51.308;5.624;2022-07-25T10:26:11;27.90;97.60
7196;DHT22;3639;51.308;5.624;2022-07-25T10:28:47;27.90;97.20
7196;DHT22;3639;51.308;5.624;2022-07-25T10:31:24;27.80;97.30
7196;DHT22;3639;51.308;5.624;2022-07-25T10:34:03;27.80;97.20
7196;DHT22;3639;51.308;5.624;2022-07-25T10:36:47;27.90;97.20
7196;DHT22;3639;51.308;5.624;2022-07-25T10:39:14;28.20;96.10
7196;DHT22;3639;51.308;5.624;2022-07-25T10:41:43;28.20;96.10
7196;DHT22;3639;51.308;5.624;2022-07-25T10:44:13;28.20;96.60
7196;DHT22;3639;51.308;5.624;2022-07-25T10:46:39;28.20;96.80
7196;DHT22;3639;51.308;5.624;2022-07-25T10:49:06;28.20;96.10
7196;DHT22;3639;51.308;5.624;2022-07-25T10:51:34;27.90;96.60
7196;DHT22;3639;51.308;5.624;2022-07-25T10:54:17;28.00;96.30
7196;DHT22;3639;51.308;5.624;2022-07-25T10:56:57;27.90;95.90
7196;DHT22;3639;51.308;5.624;2022-07-25T10:59:34;27.80;95.60
7196;DHT22;3639;51.308;5.624;2022-07-25T11:02:03;27.80;95.80
7196;DHT22;3639;51.308;5.624;2022-07-25T11:04:29;27.90;95.50
7196;DHT22;3639;51.308;5.624;2022-07-25T11:06:55;27.90;95.50
7196;DHT22;3639;51.308;5.624;2022-07-25T11:11:50;28.20;95.20
7196;DHT22;3639;51.308;5.624;2022-07-25T11:14:17;28.20;94.80
7196;DHT22;3639;51.308;5.624;2022-07-25T11:16:48;28.40;95.00
7196;DHT22;3639;51.308;5.624;2022-07-25T11:21:49;28.70;94.20
7196;DHT22;3639;51.308;5.624;2022-07-25T11:24:15;28.70;94.00
7196;DHT22;3639;51.308;5.624;2022-07-25T11:26:49;28.60;94.10
7196;DHT22;3639;51.308;5.624;2022-07-25T11:29:23;28.80;94.40
7196;DHT22;3639;51.308;5.624;2022-07-25T11:31:53;29.00;93.50
7196;DHT22;3639;51.308;5.624;2022-07-25T11:34:22;28.90;93.70
7196;DHT22;3639;51.308;5.624;2022-07-25T11:36:50;28.60;93.70
7196;DHT22;3639;51.308;5.624;2022-07-25T11:39:16;28.60;94.20
7196;DHT22;3639;51.308;5.624;2022-07-25T11:41:42;28.70;94.10
7196;DHT22;3639;51.308;5.624;2022-07-25T11:44:08;28.90;93.80
7196;DHT22;3639;51.308;5.624;2022-07-25T11:46:43;29.20;92.60
7196;DHT22;3639;51.308;5.624;2022-07-25T11:49:09;29.20;93.00
7196;DHT22;3639;51.308;5.624;2022-07-25T11:51:36;29.20;92.70
7196;DHT22;3639;51.308;5.624;2022-07-25T11:54:08;29.30;93.30
7196;DHT22;3639;51.308;5.624;2022-07-25T11:56:39;29.50;92.70
7196;DHT22;3639;51.308;5.624;2022-07-25T11:59:05;29.70;93.00
7196;DHT22;3639;51.308;5.624;2022-07-25T12:01:36;30.00;91.70
7196;DHT22;3639;51.308;5.624;2022-07-25T12:04:17;29.70;91.40
7196;DHT22;3639;51.308;5.624;2022-07-25T12:06:47;29.40;91.50
7196;DHT22;3639;51.308;5.624;2022-07-25T12:09:19;29.20;91.40
7196;DHT22;3639;51.308;5.624;2022-07-25T12:11:46;29.20;92.10
7196;DHT22;3639;51.308;5.624;2022-07-25T12:14:12;29.30;92.00
7196;DHT22;3639;51.308;5.624;2022-07-25T12:16:38;29.30;91.50
7196;DHT22;3639;51.308;5.624;2022-07-25T12:19:08;29.20;90.80
7196;DHT22;3639;51.308;5.624;2022-07-25T12:21:35;29.10;91.60
7196;DHT22;3639;51.308;5.624;2022-07-25T12:24:00;29.00;91.60
7196;DHT22;3639;51.308;5.624;2022-07-25T12:26:26;28.90;92.00
7196;DHT22;3639;51.308;5.624;2022-07-25T12:28:52;28.80;91.90
7196;DHT22;3639;51.308;5.624;2022-07-25T12:31:17;28.70;92.00
7196;DHT22;3639;51.308;5.624;2022-07-25T12:33:43;28.40;92.20
7196;DHT22;3639;51.308;5.624;2022-07-25T12:36:11;28.30;92.60
7196;DHT22;3639;51.308;5.624;2022-07-25T12:38:37;28.30;93.00
7196;DHT22;3639;51.308;5.624;2022-07-25T12:41:02;28.10;93.20
7196;DHT22;3639;51.308;5.624;2022-07-25T12:43:28;28.00;93.20
7196;DHT22;3639;51.308;5.624;2022-07-25T12:45:54;28.00;93.60
7196;DHT22;3639;51.308;5.624;2022-07-25T12:48:19;27.90;93.50
7196;DHT22;3639;51.308;5.624;2022-07-25T12:50:45;28.00;93.80
7196;DHT22;3639;51.308;5.624;2022-07-25T12:53:11;28.10;93.70
7196;DHT22;3639;51.308;5.624;2022-07-25T12:55:38;27.90;94.00
7196;DHT22;3639;51.308;5.624;2022-07-25T12:58:03;27.80;93.80
7196;DHT22;3639;51.308;5.624;2022-07-25T13:00:29;27.50;94.10
7196;DHT22;3639;51.308;5.624;2022-07-25T13:02:55;27.30;94.30
7196;DHT22;3639;51.308;5.624;2022-07-25T13:05:22;27.10;95.50
7196;DHT22;3639;51.308;5.624;2022-07-25T13:07:49;26.90;97.60
7196;DHT22;3639;51.308;5.624;2022-07-25T13:10:15;26.60;97.50
7196;DHT22;3639;51.308;5.624;2022-07-25T13:12:41;26.50;96.80
7196;DHT22;3639;51.308;5.624;2022-07-25T13:15:07;26.10;96.90
7196;DHT22;3639;51.308;5.624;2022-07-25T13:17:33;25.90;96.70
7196;DHT22;3639;51.308;5.624;2022-07-25T13:19:59;25.90;97.00
7196;DHT22;3639;51.308;5.624;2022-07-25T13:22:25;26.00;96.80
7196;DHT22;3639;51.308;5.624;2022-07-25T13:24:52;25.90;96.40
7196;DHT22;3639;51.308;5.624;2022-07-25T13:27:19;26.00;96.10
7196;DHT22;3639;51.308;5.624;2022-07-25T13:29:45;26.00;96.10
7196;DHT22;3639;51.308;5.624;2022-07-25T13:32:11;26.10;96.10
7196;DHT22;3639;51.308;5.624;2022-07-25T13:34:37;26.20;96.00
7196;DHT22;3639;51.308;5.624;2022-07-25T13:37:03;26.40;95.90
7196;DHT22;3639;51.308;5.624;2022-07-25T13:39:29;26.70;96.00
7196;DHT22;3639;51.308;5.624;2022-07-25T13:41:55;26.70;95.30
7196;DHT22;3639;51.308;5.624;2022-07-25T13:44:20;26.70;95.50
7196;DHT22;3639;51.308;5.624;2022-07-25T13:46:46;26.90;95.30
7196;DHT22;3639;51.308;5.624;2022-07-25T13:49:15;27.00;95.00
7196;DHT22;3639;51.308;5.624;2022-07-25T13:51:41;27.00;95.20
7196;DHT22;3639;51.308;5.624;2022-07-25T13:54:06;27.00;95.30
7196;DHT22;3639;51.308;5.624;2022-07-25T13:56:32;27.00;95.00
7196;DHT22;3639;51.308;5.624;2022-07-25T13:58:58;26.90;95.50
7196;DHT22;3639;51.308;5.624;2022-07-25T14:01:23;26.80;95.20
7196;DHT22;3639;51.308;5.624;2022-07-25T14:03:53;26.80;94.70
7196;DHT22;3639;51.308;5.624;2022-07-25T14:06:19;27.00;93.60
7196;DHT22;3639;51.308;5.624;2022-07-25T14:08:45;26.90;93.20
7196;DHT22;3639;51.308;5.624;2022-07-25T14:11:10;26.80;93.30
7196;DHT22;3639;51.308;5.624;2022-07-25T14:13:36;26.60;93.80
7196;DHT22;3639;51.308;5.624;2022-07-25T14:16:02;26.70;94.30
7196;DHT22;3639;51.308;5.624;2022-07-25T14:18:28;26.80;93.80
7196;DHT22;3639;51.308;5.624;2022-07-25T14:20:57;26.80;93.60
7196;DHT22;3639;51.308;5.624;2022-07-25T14:23:22;26.80;93.70
7196;DHT22;3639;51.308;5.624;2022-07-25T14:25:48;26.80;94.30
7196;DHT22;3639;51.308;5.624;2022-07-25T14:28:14;26.70;94.00
7196;DHT22;3639;51.308;5.624;2022-07-25T14:30:39;26.60;94.20
7196;DHT22;3639;51.308;5.624;2022-07-25T14:33:05;26.70;94.40
7196;DHT22;3639;51.308;5.624;2022-07-25T14:35:31;26.80;94.30
7196;DHT22;3639;51.308;5.624;2022-07-25T14:37:56;27.00;94.20
7196;DHT22;3639;51.308;5.624;2022-07-25T14:40:22;27.10;93.90
7196;DHT22;3639;51.308;5.624;2022-07-25T14:42:48;27.10;93.50
7196;DHT22;3639;51.308;5.624;2022-07-25T14:45:14;27.20;94.00
7196;DHT22;3639;51.308;5.624;2022-07-25T14:47:40;27.10;93.00
7196;DHT22;3639;51.308;5.624;2022-07-25T14:50:06;27.00;92.90
7196;DHT22;3639;51.308;5.624;2022-07-25T14:52:32;26.80;93.30
7196;DHT22;3639;51.308;5.624;2022-07-25T14:54:58;26.80;93.30
7196;DHT22;3639;51.308;5.624;2022-07-25T14:57:24;26.80;93.60
7196;DHT22;3639;51.308;5.624;2022-07-25T14:59:49;26.80;93.30
7196;DHT22;3639;51.308;5.624;2022-07-25T15:02:15;26.80;93.40
7196;DHT22;3639;51.308;5.624;2022-07-25T15:04:41;26.80;92.30
7196;DHT22;3639;51.308;5.624;2022-07-25T15:07:06;26.80;92.50
7196;DHT22;3639;51.308;5.624;2022-07-25T15:09:32;27.00;92.40
7196;DHT22;3639;51.308;5.624;2022-07-25T15:11:58;27.10;92.40
7196;DHT22;3639;51.308;5.624;2022-07-25T15:14:24;27.10;92.30
7196;DHT22;3639;51.308;5.624;2022-07-25T15:16:49;27.00;92.20
7196;DHT22;3639;51.308;5.624;2022-07-25T15:19:15;26.90;92.40
7196;DHT22;3639;51.308;5.624;2022-07-25T15:21:40;26.90;92.60
7196;DHT22;3639;51.308;5.624;2022-07-25T15:24:06;26.80;92.90
7196;DHT22;3639;51.308;5.624;2022-07-25T15:26:32;26.80;92.90
7196;DHT22;3639;51.308;5.624;2022-07-25T15:28:58;26.80;92.50
7196;DHT22;3639;51.308;5.624;2022-07-25T15:31:24;26.80;92.60
7196;DHT22;3639;51.308;5.624;2022-07-25T15:33:50;26.90;92.40
7196;DHT22;3639;51.308;5.624;2022-07-25T15:36:18;26.90;92.40
7196;DHT22;3639;51.308;5.624;2022-07-25T15:38:44;27.00;91.00
7196;DHT22;3639;51.308;5.624;2022-07-25T15:41:12;27.00;90.80
7196;DHT22;3639;51.308;5.624;2022-07-25T15:43:39;27.00;90.90
7196;DHT22;3639;51.308;5.624;2022-07-25T15:46:05;26.90;90.90
7196;DHT22;3639;51.308;5.624;2022-07-25T15:48:34;26.90;90.60
7196;DHT22;3639;51.308;5.624;2022-07-25T15:51:00;26.80;88.80
7196;DHT22;3639;51.308;5.624;2022-07-25T15:53:26;26.90;88.40
7196;DHT22;3639;51.308;5.624;2022-07-25T15:55:52;26.80;90.00
7196;DHT22;3639;51.308;5.624;2022-07-25T15:58:18;26.80;89.50
7196;DHT22;3639;51.308;5.624;2022-07-25T16:00:43;26.80;89.50
7196;DHT22;3639;51.308;5.624;2022-07-25T16:03:09;26.70;88.90
7196;DHT22;3639;51.308;5.624;2022-07-25T16:05:37;26.70;88.60
7196;DHT22;3639;51.308;5.624;2022-07-25T16:08:03;26.80;87.60
7196;DHT22;3639;51.308;5.624;2022-07-25T16:10:30;26.80;87.30
7196;DHT22;3639;51.308;5.624;2022-07-25T16:12:56;26.80;87.70